Flight Track Log - Related Links

Times and Time Zones

All times are in EST time to prevent confusion due to time zone crossing. See the N75AW flight status page for this flight to view local times or setup timezone preferences in your user account.

Time Position Orientation Groundspeed Altitude Reporting Facility
EST Latitude Longitude Course Direction KTS MPH feet Rate Location/Type
Thu 08:32:39 AM 26.2908 -81.7525 354° North 219 252 5,200  Level Miami Center
Thu 08:33:39 AM 26.3453 -81.7503 North 205 236 6,700 1,650 Climbing Miami Center
Thu 08:34:39 AM 26.4033 -81.7619 350° North 195 224 8,500 1,600 Climbing Miami Center
Thu 08:35:39 AM 26.4572 -81.7711 351° North 195 224 9,900 1,350 Climbing Miami Center
Thu 08:36:00 AM 26.5191 -81.8256 354° North  Level Estimated
Thu 08:36:39 AM 26.5069 -81.7847 346° North 201 231 11,200  Level Miami Center
Thu 08:37:39 AM 26.5631 -81.7894 356° North 201 231 12,700 1,500 Climbing Miami Center
Thu 08:38:39 AM 26.6211 -81.7989 352° North 201 231 14,200 1,500 Climbing Miami Center
Thu 08:39:39 AM 26.6814 -81.8106 350° North 206 237 15,700 1,600 Climbing Miami Center
Thu 08:40:39 AM 26.7478 -81.8181 354° North 216 249 17,400 1,200 Climbing Miami Center
Thu 08:41:39 AM 26.7997 -81.8272 351° North 216 249 18,100 300 Climbing Miami Center
Thu 08:42:39 AM 26.8786 -81.8400 352° North 230 265 18,000 -50 Descending Miami Center
Thu 08:43:39 AM 26.9575 -81.8528 352° North 271 312 18,000  Level Miami Center
Thu 08:44:39 AM 27.0261 -81.8625 353° North 282 325 18,000  Level Miami Center
Thu 08:45:39 AM 27.1050 -81.8731 353° North 282 325 18,000  Level Miami Center
Thu 08:46:39 AM 27.1839 -81.8858 352° North 282 325 18,000  Level Miami Center
Thu 08:47:39 AM 27.2606 -81.9008 350° North 282 325 18,000  Level Miami Center
Thu 08:48:39 AM 27.3375 -81.9133 352° North 276 318 18,000  Level Miami Center
Thu 08:49:39 AM 27.4161 -81.9264 352° North 276 318 18,000  Level Miami Center
Thu 08:50:39 AM 27.4931 -81.9389 352° North 276 318 18,000  Level Miami Center
Thu 08:51:39 AM 27.5761 -81.9497 353° North 276 318 18,000  Level Miami Center
Thu 08:52:39 AM 27.6444 -81.9622 351° North 276 318 18,000  Level Miami Center
Thu 08:53:39 AM 27.7214 -81.9725 353° North 276 318 18,000  Level Miami Center
Thu 08:54:39 AM 27.8106 -81.9883 351° North 286 329 18,000  Level Miami Center
Thu 08:56:33 AM 27.9467 -82.0092 352° North 268 308 18,000  Level Jacksonville Center
Thu 08:57:33 AM 28.0217 -82.0228 351° North 268 308 18,000  Level Jacksonville Center
Thu 08:58:33 AM 28.0992 -82.0339 353° North 273 314 18,000  Level Jacksonville Center
Thu 08:59:33 AM 28.1764 -82.0450 353° North 273 314 18,000  Level Jacksonville Center
Thu 09:00:33 AM 28.2517 -82.0561 353° North 279 321 18,000  Level Jacksonville Center
Thu 09:01:33 AM 28.3289 -82.0697 351° North 279 321 18,000  Level Jacksonville Center
Thu 09:02:33 AM 28.4042 -82.0808 353° North 279 321 18,000  Level Jacksonville Center
Thu 09:03:33 AM 28.4792 -82.0897 354° North 279 321 18,000  Level Jacksonville Center
Thu 09:04:33 AM 28.5522 -82.1008 352° North 274 315 18,000  Level Jacksonville Center
Thu 09:05:33 AM 28.6275 -82.1119 353° North 274 315 18,000  Level Jacksonville Center
Thu 09:06:33 AM 28.7028 -82.1233 352° North 274 315 18,000 -300 Level Jacksonville Center
Thu 09:07:33 AM 28.7781 -82.1344 353° North 274 315 17,400 -1,121 Descending Jacksonville Center
Thu 09:08:04 AM 28.8197 -82.1414 352° North 274 315 16,300 -2,000 Descending Jacksonville Center
Thu 09:08:33 AM 28.8553 -82.1458 354° North 274 315 15,400 -2,372 Descending Jacksonville Center
Thu 09:08:47 AM 28.8803 -82.1481 356° North 286 329 14,600 -2,348 Descending Jacksonville Center
Thu 09:09:42 AM 28.9492 -82.1594 352° North 289 333 12,700 -1,868 Descending Jacksonville Center
Thu 09:10:33 AM 29.0097 -82.1683 353° North 274 315 11,300 -1,612 Descending Jacksonville Center
Thu 09:10:49 AM 29.0392 -82.1753 348° North 281 323 10,900 -1,100 Descending Jacksonville Center
Thu 09:11:33 AM 29.0831 -82.1797 355° North 274 315 10,200 -1,180 Descending Jacksonville Center
Thu 09:11:50 AM 29.1100 -82.1892 343° North 264 304 9,700 -1,200 Descending Jacksonville Center
Thu 09:12:33 AM 29.1561 -82.1936 355° North 274 315 9,000 -1,164 Descending Jacksonville Center
Thu 09:12:57 AM 29.1936 -82.2003 351° North 257 296 8,400 -1,000 Descending Jacksonville Center
Thu 09:13:33 AM 29.2292 -82.2025 357° North 264 304 8,000 -393 Descending Jacksonville Center
Thu 09:13:58 AM 29.2647 -82.2069 354° North 254 292 8,000  Level Jacksonville Center
Thu 09:14:33 AM 29.2939 -82.2139 348° North 254 292 8,000 -537 Level Jacksonville Center
Thu 09:15:05 AM 29.3317 -82.2233 348° North 233 268 7,400 -1,000 Descending Jacksonville Center
Thu 09:15:33 AM 29.3608 -82.2231 360° North 249 287 7,000 -1,224 Descending Jacksonville Center
Thu 09:15:54 AM 29.3922 -82.2300 349° North 248 285 6,400 -1,200 Descending Jacksonville Center
Thu 09:16:33 AM 29.4297 -82.2322 357° North 249 287 5,800 -1,200 Descending Jacksonville Center
Thu 09:16:54 AM 29.4633 -82.2461 340° North 249 287 5,200 -1,200 Descending Jacksonville Center
Thu 09:17:33 AM 29.4947 -82.2628 335° Northwest 244 281 4,600 -1,147 Descending Jacksonville Center
Thu 09:18:02 AM 29.5303 -82.2864 330° Northwest 251 289 3,900 -1,301 Descending Jacksonville Center
Thu 09:18:56 AM 29.5908 -82.3147 338° Northwest 255 293 2,800 -1,034 Descending Jacksonville Center
Thu 09:19:58 AM 29.6494 -82.3261 350° North 196 226 1,900 -976 Descending Jacksonville Center
Thu 09:20:59 AM 29.6806 -82.3069 28° Northeast 108 124 800 -1,082 Descending Jacksonville Center
Thu 09:22:00 AM 29.6901 -82.2718 85° East  Level Estimated

Login

Don't have an account? Register now (free) for customized features, flight alerts, and more!